Time;durP1;ratioP1;P1;durP2;ratioP2;P2;SDS_P1;SDS_P2;PMS_P1;PMS_P2;Temp;Humidity;BMP_temperature;BMP_pressure;BME280_temperature;BME280_humidity;BME280_pressure;Samples;Min_cycle;Max_cycle;Signal;HPM_P1;HPM_P2
2022/02/21 00:00:21;;;;;;;1.70;0.80;;;10.10;41.80;;;;;;5028312;28;20197;-68
2022/02/21 00:02:50;;;;;;;1.60;0.70;;;10.10;41.60;;;;;;5031094;28;20195;-67
2022/02/21 00:05:18;;;;;;;2.00;0.70;;;10.10;41.60;;;;;;5027058;28;20183;-68
2022/02/21 00:07:46;;;;;;;2.58;0.80;;;10.10;41.40;;;;;;5031365;28;20195;-68
2022/02/21 00:10:14;;;;;;;2.53;0.68;;;10.20;41.40;;;;;;5030386;28;20582;-68
2022/02/21 00:12:43;;;;;;;1.80;0.70;;;10.20;41.10;;;;;;5025873;28;20705;-67
2022/02/21 00:15:15;;;;;;;1.70;0.80;;;10.20;41.10;;;;;;5028180;28;20191;-68
2022/02/21 00:17:42;;;;;;;1.60;0.70;;;10.30;41.20;;;;;;5030132;28;20293;-68
2022/02/21 00:20:10;;;;;;;1.60;0.70;;;10.20;40.90;;;;;;5030816;28;20264;-68
2022/02/21 00:22:37;;;;;;;1.75;0.60;;;10.30;41.20;;;;;;5029708;28;20187;-68
2022/02/21 00:25:05;;;;;;;1.50;0.60;;;10.30;41.20;;;;;;5030844;28;20195;-68
2022/02/21 00:27:32;;;;;;;1.73;0.70;;;10.30;41.20;;;;;;5029762;28;20196;-68
2022/02/21 00:30:00;;;;;;;1.80;0.60;;;10.30;41.00;;;;;;5032194;28;20202;-68
2022/02/21 00:32:28;;;;;;;1.70;0.63;;;10.30;41.00;;;;;;5020621;28;20192;-67
2022/02/21 00:34:55;;;;;;;1.92;0.77;;;10.30;41.10;;;;;;5012768;28;20203;-68
2022/02/21 00:37:22;;;;;;;1.40;0.50;;;10.30;41.00;;;;;;5022639;28;20187;-68
2022/02/21 00:39:49;;;;;;;2.08;0.70;;;10.30;41.10;;;;;;5014453;28;20519;-68
2022/02/21 00:42:17;;;;;;;1.70;0.90;;;10.30;41.10;;;;;;5024304;28;20230;-68
2022/02/21 00:44:43;;;;;;;1.48;0.60;;;10.30;41.00;;;;;;5032686;28;20201;-68
2022/02/21 00:47:12;;;;;;;1.50;0.70;;;10.30;40.90;;;;;;5021706;28;20198;-71
2022/02/21 00:49:39;;;;;;;1.40;0.60;;;10.30;40.90;;;;;;5032446;28;20268;-69
2022/02/21 00:52:06;;;;;;;2.50;0.80;;;10.30;41.10;;;;;;5021703;28;20228;-67
2022/02/21 00:54:34;;;;;;;1.50;0.68;;;10.30;41.10;;;;;;5013071;28;20242;-68
2022/02/21 00:57:05;;;;;;;2.22;0.80;;;10.30;40.80;;;;;;5014772;28;20200;-69
2022/02/21 00:59:32;;;;;;;1.63;0.75;;;10.30;40.70;;;;;;5012668;28;20223;-68
2022/02/21 01:01:59;;;;;;;2.67;0.60;;;10.40;40.90;;;;;;5031909;28;20191;-68
2022/02/21 01:04:28;;;;;;;1.50;0.63;;;10.40;40.60;;;;;;5031927;28;20603;-68
2022/02/21 01:06:55;;;;;;;1.50;0.70;;;10.40;40.80;;;;;;5031808;28;20624;-68
2022/02/21 01:09:23;;;;;;;2.55;0.80;;;10.40;40.80;;;;;;5015655;28;20271;-68
2022/02/21 01:11:50;;;;;;;1.65;0.60;;;10.40;40.90;;;;;;5011946;28;20215;-70
2022/02/21 01:14:17;;;;;;;1.60;0.80;;;10.40;40.70;;;;;;5026743;28;20617;-68
2022/02/21 01:16:44;;;;;;;3.65;0.80;;;10.30;41.00;;;;;;5032061;28;20198;-68
2022/02/21 01:19:13;;;;;;;1.80;0.90;;;10.30;40.90;;;;;;5013853;28;20303;-68
2022/02/21 01:21:41;;;;;;;1.60;0.70;;;10.30;40.80;;;;;;5012194;28;20222;-68
2022/02/21 01:24:08;;;;;;;2.67;0.60;;;10.30;40.80;;;;;;5028594;28;20202;-69
2022/02/21 01:26:35;;;;;;;2.17;0.82;;;10.30;41.10;;;;;;5031642;28;20646;-68
2022/02/21 01:29:03;;;;;;;1.60;0.68;;;10.30;41.10;;;;;;5015983;28;20191;-68
2022/02/21 01:31:30;;;;;;;1.60;0.60;;;10.30;41.10;;;;;;5022425;28;20211;-68
2022/02/21 01:33:57;;;;;;;1.58;0.60;;;10.30;41.10;;;;;;5032003;28;20230;-69
2022/02/21 01:36:24;;;;;;;1.70;0.80;;;10.30;40.90;;;;;;5020108;28;20250;-68
2022/02/21 01:38:53;;;;;;;1.60;0.70;;;10.20;41.00;;;;;;5011760;28;20191;-68
2022/02/21 01:41:20;;;;;;;1.40;0.50;;;10.20;41.10;;;;;;5021922;28;20654;-68
2022/02/21 01:43:47;;;;;;;2.00;0.85;;;10.20;40.80;;;;;;5031801;28;20191;-68
2022/02/21 01:46:15;;;;;;;1.58;0.65;;;10.20;40.90;;;;;;5022395;28;20254;-70
2022/02/21 01:48:42;;;;;;;2.88;0.80;;;10.20;40.90;;;;;;5011992;28;20191;-68
2022/02/21 01:51:09;;;;;;;1.55;0.60;;;10.20;41.10;;;;;;5028617;28;20684;-68
2022/02/21 01:53:37;;;;;;;1.45;0.60;;;10.20;40.90;;;;;;5031381;28;20672;-68
2022/02/21 01:56:06;;;;;;;1.75;0.90;;;10.20;40.50;;;;;;5029432;28;20191;-68
2022/02/21 01:58:33;;;;;;;1.50;0.52;;;10.20;40.60;;;;;;5031401;28;20203;-68
2022/02/21 02:01:01;;;;;;;3.60;0.75;;;10.20;40.70;;;;;;5018432;28;20238;-68
2022/02/21 02:03:28;;;;;;;1.60;0.70;;;10.20;40.70;;;;;;5027943;28;20187;-68
2022/02/21 02:05:56;;;;;;;1.48;0.60;;;10.20;40.60;;;;;;5032826;28;20191;-68
2022/02/21 02:08:23;;;;;;;4.45;0.80;;;10.10;40.00;;;;;;5028110;28;20547;-68
2022/02/21 02:10:50;;;;;;;2.15;0.70;;;10.20;40.20;;;;;;5015205;28;20219;-68
2022/02/21 02:13:18;;;;;;;1.92;0.60;;;10.20;40.20;;;;;;5019859;28;20310;-67
2022/02/21 02:15:45;;;;;;;1.98;0.70;;;10.20;40.20;;;;;;5035049;28;20195;-68
2022/02/21 02:18:13;;;;;;;1.90;1.08;;;10.30;40.20;;;;;;5030455;28;20628;-68
2022/02/21 02:20:40;;;;;;;1.70;0.90;;;10.30;40.20;;;;;;5020466;28;20301;-68
2022/02/21 02:23:09;;;;;;;1.80;0.77;;;10.20;40.00;;;;;;5031750;28;20302;-68
2022/02/21 02:25:36;;;;;;;1.73;0.80;;;10.20;40.00;;;;;;5015197;28;20732;-68
2022/02/21 02:28:03;;;;;;;2.05;0.80;;;10.30;39.80;;;;;;5016602;28;20678;-68
2022/02/21 02:30:30;;;;;;;4.65;0.80;;;10.20;39.70;;;;;;5034586;28;20245;-68
2022/02/21 02:32:57;;;;;;;1.70;0.77;;;10.20;39.70;;;;;;5034009;28;20556;-70
2022/02/21 02:35:26;;;;;;;2.50;0.95;;;10.20;39.50;;;;;;5014636;28;20575;-68
2022/02/21 02:37:53;;;;;;;1.60;0.60;;;10.20;39.00;;;;;;5020479;28;20642;-68
2022/02/21 02:40:22;;;;;;;1.80;0.70;;;10.20;38.90;;;;;;5032479;28;20195;-68
2022/02/21 02:42:49;;;;;;;4.20;0.80;;;10.20;38.60;;;;;;5015033;28;20192;-68
2022/02/21 02:45:16;;;;;;;1.70;0.60;;;10.20;38.20;;;;;;5014592;28;20198;-68
2022/02/21 02:47:43;;;;;;;1.40;0.60;;;10.30;38.40;;;;;;5034724;28;20271;-68
2022/02/21 02:50:10;;;;;;;1.50;0.63;;;10.30;38.20;;;;;;5034380;28;20195;-68
2022/02/21 02:52:37;;;;;;;1.70;0.70;;;10.30;37.80;;;;;;5014740;28;20220;-68
2022/02/21 02:55:10;;;;;;;1.50;0.60;;;10.40;37.70;;;;;;5014367;28;20713;-68
2022/02/21 02:57:40;;;;;;;1.45;0.63;;;10.40;37.60;;;;;;5032087;28;20230;-68
2022/02/21 03:00:13;;;;;;;1.60;0.70;;;10.40;37.70;;;;;;5022374;28;20188;-68
2022/02/21 03:02:40;;;;;;;1.50;0.70;;;10.40;37.50;;;;;;5014477;28;20196;-68
2022/02/21 03:05:07;;;;;;;1.65;0.65;;;10.50;37.70;;;;;;5024819;28;20241;-68
2022/02/21 03:07:34;;;;;;;1.50;0.80;;;10.50;37.20;;;;;;5033805;28;20195;-68
2022/02/21 03:10:01;;;;;;;1.70;0.70;;;10.50;36.90;;;;;;5023690;28;20187;-68
2022/02/21 03:12:29;;;;;;;2.70;0.80;;;10.50;36.90;;;;;;5013968;28;20219;-68
2022/02/21 03:14:58;;;;;;;2.05;0.60;;;10.50;36.20;;;;;;5022635;28;20245;-68
2022/02/21 03:17:25;;;;;;;1.80;0.82;;;10.50;36.00;;;;;;5028148;28;20179;-68
2022/02/21 03:19:52;;;;;;;1.60;0.63;;;10.60;36.00;;;;;;5014889;28;20191;-68
2022/02/21 03:22:19;;;;;;;1.50;0.75;;;10.60;36.00;;;;;;5024245;28;20180;-67
2022/02/21 03:24:46;;;;;;;1.40;0.60;;;10.60;35.60;;;;;;5013710;28;20192;-68
2022/02/21 03:27:13;;;;;;;1.83;0.50;;;10.60;35.50;;;;;;5014751;28;20287;-68
2022/02/21 03:29:42;;;;;;;2.00;0.90;;;10.60;35.50;;;;;;5033685;28;20195;-69
2022/02/21 03:32:11;;;;;;;2.03;1.00;;;10.60;35.40;;;;;;5025183;28;20314;-69
2022/02/21 03:34:38;;;;;;;1.50;0.70;;;10.70;35.60;;;;;;5013826;28;20659;-68
2022/02/21 03:37:06;;;;;;;1.80;0.82;;;10.70;35.30;;;;;;5019980;28;20179;-68
2022/02/21 03:39:33;;;;;;;1.40;0.60;;;10.70;35.60;;;;;;5033417;28;20198;-68
2022/02/21 03:42:00;;;;;;;2.33;0.88;;;10.70;35.60;;;;;;5031664;28;20183;-68
2022/02/21 03:44:27;;;;;;;1.65;0.68;;;10.70;35.70;;;;;;5033235;28;20191;-68
2022/02/21 03:46:54;;;;;;;2.88;0.60;;;10.70;35.80;;;;;;5026940;28;20282;-68
2022/02/21 03:49:23;;;;;;;2.55;0.70;;;10.70;36.10;;;;;;5013955;28;20282;-69
2022/02/21 03:51:50;;;;;;;2.45;0.85;;;10.70;36.50;;;;;;5016285;28;20217;-68
2022/02/21 03:54:17;;;;;;;1.60;0.68;;;10.70;36.60;;;;;;5013456;28;20245;-68
2022/02/21 03:56:44;;;;;;;1.52;0.63;;;10.70;36.80;;;;;;5016702;28;20322;-68
2022/02/21 03:59:11;;;;;;;1.50;0.55;;;10.60;37.00;;;;;;5033387;28;20187;-68
2022/02/21 04:01:38;;;;;;;1.48;0.60;;;10.70;37.30;;;;;;5030604;28;20197;-68
2022/02/21 04:04:05;;;;;;;1.60;0.60;;;10.70;37.30;;;;;;5013389;28;20203;-67
2022/02/21 04:06:34;;;;;;;1.70;0.70;;;10.70;37.30;;;;;;5014294;28;20242;-68
2022/02/21 04:09:00;;;;;;;1.45;0.60;;;10.70;37.40;;;;;;5033212;28;20530;-68
2022/02/21 04:11:28;;;;;;;1.48;0.65;;;10.70;37.50;;;;;;5022322;28;20211;-68
2022/02/21 04:13:55;;;;;;;2.95;0.73;;;10.60;37.50;;;;;;5013170;28;20224;-68
2022/02/21 04:16:22;;;;;;;1.80;0.80;;;10.60;37.70;;;;;;5021562;28;20198;-68
2022/02/21 04:18:49;;;;;;;2.70;0.77;;;10.70;38.50;;;;;;5030969;28;20198;-69
2022/02/21 04:21:16;;;;;;;1.75;0.73;;;10.60;37.80;;;;;;5013918;28;20554;-68
2022/02/21 04:23:44;;;;;;;1.50;0.70;;;10.70;38.20;;;;;;5013557;28;20195;-68
2022/02/21 04:26:11;;;;;;;2.47;0.70;;;10.60;38.00;;;;;;5032950;28;20206;-68
2022/02/21 04:28:39;;;;;;;1.60;0.70;;;10.60;38.10;;;;;;5032360;28;20637;-68
2022/02/21 04:31:06;;;;;;;1.60;0.80;;;10.50;38.30;;;;;;5032167;28;20557;-68
2022/02/21 04:33:33;;;;;;;1.50;0.70;;;10.50;38.30;;;;;;5032901;28;20202;-68
2022/02/21 04:36:00;;;;;;;1.50;0.70;;;10.50;38.20;;;;;;5014336;28;20234;-68
2022/02/21 04:38:27;;;;;;;1.52;0.70;;;10.50;38.50;;;;;;5023535;28;20203;-68
2022/02/21 04:40:56;;;;;;;1.63;0.73;;;10.50;38.70;;;;;;5032879;28;20198;-69
2022/02/21 04:43:23;;;;;;;1.60;0.60;;;10.40;38.80;;;;;;5022278;28;20184;-68
2022/02/21 04:45:54;;;;;;;1.70;0.70;;;10.40;39.10;;;;;;5012769;28;20725;-68
2022/02/21 04:48:22;;;;;;;1.40;0.50;;;10.40;39.50;;;;;;5021596;28;20183;-68
2022/02/21 04:50:49;;;;;;;1.40;0.57;;;10.30;39.90;;;;;;5032477;28;20194;-68
2022/02/21 04:53:17;;;;;;;1.60;0.63;;;10.30;40.10;;;;;;5024378;28;20700;-68
2022/02/21 04:55:44;;;;;;;1.60;0.70;;;10.20;40.70;;;;;;5012696;28;20202;-68
2022/02/21 04:58:13;;;;;;;3.10;0.98;;;10.10;41.10;;;;;;5018874;28;20183;-68
2022/02/21 05:00:40;;;;;;;1.77;0.70;;;10.10;41.40;;;;;;5017217;28;20306;-68
2022/02/21 05:03:07;;;;;;;1.63;0.60;;;10.00;41.90;;;;;;5012593;28;20705;-68
2022/02/21 05:05:35;;;;;;;1.50;0.60;;;10.00;42.30;;;;;;5019771;28;20634;-68
2022/02/21 05:08:02;;;;;;;2.30;0.60;;;9.90;43.30;;;;;;5032367;28;20214;-68
2022/02/21 05:10:29;;;;;;;1.50;0.50;;;9.90;43.60;;;;;;5025070;28;20238;-68
2022/02/21 05:12:56;;;;;;;1.60;0.60;;;9.90;44.00;;;;;;5012122;28;20325;-68
2022/02/21 05:15:27;;;;;;;1.50;0.70;;;9.80;43.80;;;;;;5017315;28;20198;-68
2022/02/21 05:17:55;;;;;;;1.30;0.50;;;9.80;43.80;;;;;;5031337;28;20191;-67
2022/02/21 05:20:22;;;;;;;1.50;0.60;;;9.80;44.00;;;;;;5018187;28;20588;-67
2022/02/21 05:22:49;;;;;;;1.50;0.57;;;9.80;44.20;;;;;;5012320;28;20195;-67
2022/02/21 05:25:17;;;;;;;1.80;0.95;;;9.80;44.30;;;;;;5024193;28;20707;-67
2022/02/21 05:27:44;;;;;;;1.70;0.70;;;9.80;44.30;;;;;;5032054;28;20191;-67
2022/02/21 05:30:13;;;;;;;1.60;0.80;;;9.70;44.40;;;;;;5020805;28;20188;-67
2022/02/21 05:32:41;;;;;;;1.90;0.70;;;9.70;44.50;;;;;;5012230;28;20675;-67
2022/02/21 05:35:09;;;;;;;1.60;0.70;;;9.70;44.70;;;;;;5030575;28;20226;-67
2022/02/21 05:37:36;;;;;;;1.40;0.60;;;9.70;45.10;;;;;;5032044;28;20253;-67
2022/02/21 05:40:04;;;;;;;1.50;0.63;;;9.60;45.60;;;;;;5014481;28;20196;-67
2022/02/21 05:42:31;;;;;;;1.73;0.70;;;9.60;46.00;;;;;;5015966;28;20230;-67
2022/02/21 05:44:59;;;;;;;1.50;0.68;;;9.60;46.30;;;;;;5031604;28;20197;-66
2022/02/21 05:47:26;;;;;;;1.77;0.60;;;9.60;46.60;;;;;;5035607;28;20274;-68
2022/02/21 05:49:54;;;;;;;1.60;0.60;;;9.60;46.70;;;;;;5016702;28;20210;-67
2022/02/21 05:52:22;;;;;;;1.50;0.60;;;9.60;47.00;;;;;;5023377;28;20223;-67
2022/02/21 05:54:49;;;;;;;1.40;0.50;;;9.60;47.30;;;;;;5035648;28;20665;-67
2022/02/21 05:57:16;;;;;;;1.40;0.50;;;9.60;47.30;;;;;;5033457;28;20198;-66
2022/02/21 05:59:43;;;;;;;1.58;0.63;;;9.70;47.50;;;;;;5025783;28;20191;-67
2022/02/21 06:02:12;;;;;;;2.58;0.70;;;9.70;47.50;;;;;;5029935;28;20188;-67
2022/02/21 06:04:39;;;;;;;3.08;0.70;;;9.70;47.50;;;;;;5016461;28;20192;-67
2022/02/21 06:07:07;;;;;;;1.45;0.60;;;9.80;47.40;;;;;;5015596;28;20238;-67
2022/02/21 06:09:34;;;;;;;1.60;0.60;;;9.80;47.20;;;;;;5031363;28;20593;-67
2022/02/21 06:12:01;;;;;;;1.70;0.70;;;9.90;47.90;;;;;;5033394;28;20551;-67
2022/02/21 06:14:33;;;;;;;1.40;0.60;;;10.00;46.60;;;;;;5032334;28;20219;-67
2022/02/21 06:17:00;;;;;;;1.40;0.60;;;10.00;46.90;;;;;;5033788;28;20195;-67
2022/02/21 06:19:27;;;;;;;2.78;0.90;;;10.10;47.80;;;;;;5032596;28;20554;-67
2022/02/21 06:21:54;;;;;;;1.60;0.70;;;10.00;49.50;;;;;;5030606;28;20187;-67
2022/02/21 06:24:24;;;;;;;1.58;0.50;;;9.20;50.60;;;;;;5033267;28;20187;-69
2022/02/21 06:26:51;;;;;;;1.40;0.50;;;8.20;52.60;;;;;;5033429;28;20190;-69
2022/02/21 06:29:18;;;;;;;1.35;0.50;;;7.50;55.60;;;;;;5033394;28;20199;-69
2022/02/21 06:31:45;;;;;;;1.50;0.50;;;7.00;56.40;;;;;;5032237;28;20638;-68
2022/02/21 06:34:12;;;;;;;1.40;0.50;;;6.70;57.30;;;;;;5033385;28;20199;-68
2022/02/21 06:36:39;;;;;;;1.50;0.50;;;6.20;60.80;;;;;;5030978;28;20191;-68
2022/02/21 06:39:06;;;;;;;2.20;0.60;;;5.90;61.20;;;;;;5032996;28;20206;-68
2022/02/21 06:41:34;;;;;;;1.50;0.50;;;5.50;64.40;;;;;;5032181;28;20191;-68
2022/02/21 06:44:01;;;;;;;1.88;0.80;;;5.00;68.90;;;;;;5033000;28;20298;-68
2022/02/21 06:46:29;;;;;;;1.60;0.80;;;;;;;;;;5027019;28;20183;-68
2022/02/21 06:48:56;;;;;;;1.52;0.55;;;;;;;;;;5032828;28;20191;-71
2022/02/21 06:51:23;;;;;;;1.50;0.60;;;;;;;;;;5024120;28;20237;-69
2022/02/21 06:53:50;;;;;;;1.80;0.50;;;;;;;;;;5032978;28;20222;-68
2022/02/21 06:56:18;;;;;;;1.98;1.10;;;;;;;;;;5032223;28;20213;-68
2022/02/21 06:58:47;;;;;;;1.63;0.80;;;;;;;;;;5032836;28;20202;-69
2022/02/21 07:01:14;;;;;;;1.50;0.60;;;;;;;;;;5028170;28;20195;-68
2022/02/21 07:03:41;;;;;;;1.70;0.70;;;;;;;;;;5032005;28;20601;-68
2022/02/21 07:06:09;;;;;;;1.90;0.70;;;;;;;;;;5030515;28;20654;-69
2022/02/21 07:08:36;;;;;;;1.83;0.57;;;4.50;73.40;;;;;;5031460;28;20264;-70
2022/02/21 07:11:03;;;;;;;2.55;1.70;;;4.30;77.60;;;;;;5032769;28;20187;-66
2022/02/21 07:13:30;;;;;;;1.73;0.80;;;4.30;77.90;;;;;;5029584;28;20230;-66
2022/02/21 07:15:59;;;;;;;1.98;0.57;;;4.30;77.70;;;;;;5029286;28;20199;-66
2022/02/21 07:18:26;;;;;;;1.83;0.80;;;4.40;76.90;;;;;;5031205;28;20233;-66
2022/02/21 07:20:53;;;;;;;1.70;0.68;;;4.50;76.10;;;;;;5033098;28;20218;-66
2022/02/21 07:23:20;;;;;;;2.33;0.60;;;4.60;74.90;;;;;;5033005;28;20230;-66
2022/02/21 07:25:47;;;;;;;2.67;0.80;;;4.60;72.50;;;;;;5027184;28;20575;-67
2022/02/21 07:28:15;;;;;;;2.17;0.65;;;4.60;70.60;;;;;;5032044;28;20198;-66
2022/02/21 07:30:42;;;;;;;2.15;0.80;;;4.60;70.20;;;;;;5025560;28;20192;-66
2022/02/21 07:33:11;;;;;;;2.58;0.88;;;4.60;70.10;;;;;;5032488;28;20230;-65
2022/02/21 07:35:38;;;;;;;2.40;0.70;;;4.70;69.70;;;;;;5030813;28;20227;-66
2022/02/21 07:38:05;;;;;;;2.25;0.70;;;4.70;69.20;;;;;;5030453;28;20222;-66
2022/02/21 07:40:32;;;;;;;1.73;0.70;;;4.80;69.70;;;;;;5030432;28;20246;-66
2022/02/21 07:42:59;;;;;;;5.03;0.98;;;4.80;69.80;;;;;;5030723;28;20183;-68
2022/02/21 07:45:27;;;;;;;2.70;0.82;;;4.80;69.70;;;;;;5028913;28;20321;-69
2022/02/21 07:47:56;;;;;;;2.03;0.60;;;4.80;70.00;;;;;;5029269;28;20214;-72
2022/02/21 07:50:25;;;;;;;1.83;0.90;;;4.70;70.30;;;;;;5028064;28;20278;-73
2022/02/21 07:52:53;;;;;;;2.13;0.90;;;4.70;70.40;;;;;;5028874;28;20681;-69
2022/02/21 07:55:20;;;;;;;1.80;0.88;;;4.70;71.30;;;;;;5023694;28;20274;-69
2022/02/21 07:57:47;;;;;;;1.65;0.80;;;4.70;71.60;;;;;;5031919;28;20191;-66
2022/02/21 08:00:17;;;;;;;1.92;0.90;;;4.80;71.60;;;;;;5027396;28;20210;-66
2022/02/21 08:02:44;;;;;;;1.45;0.65;;;4.70;71.70;;;;;;5025893;28;20190;-66
2022/02/21 08:05:11;;;;;;;1.50;0.75;;;4.70;72.20;;;;;;5030002;28;20194;-72
2022/02/21 08:07:40;;;;;;;3.30;1.42;;;4.70;72.20;;;;;;5031308;28;20187;-66
2022/02/21 08:10:08;;;;;;;2.30;0.85;;;4.70;71.20;;;;;;5014071;28;20282;-66
2022/02/21 08:12:35;;;;;;;2.30;0.85;;;4.60;71.80;;;;;;5013340;28;20219;-66
2022/02/21 08:15:03;;;;;;;3.58;0.77;;;4.50;71.80;;;;;;5027981;28;20237;-66
2022/02/21 08:17:45;;;;;;;1.88;0.70;;;4.30;72.80;;;;;;5024662;28;20238;-67
2022/02/21 08:20:13;;;;;;;2.22;0.80;;;4.40;73.90;;;;;;5013765;28;20302;-66
2022/02/21 08:22:41;;;;;;;3.78;1.23;;;4.40;73.60;;;;;;5013838;28;20192;-66
2022/02/21 08:25:09;;;;;;;2.00;0.70;;;4.50;71.90;;;;;;5013864;28;20717;-65
2022/02/21 08:27:37;;;;;;;1.40;0.52;;;4.50;72.50;;;;;;5013719;28;20223;-66
2022/02/21 08:30:06;;;;;;;1.50;0.60;;;4.70;71.80;;;;;;5013874;28;20642;-66
2022/02/21 08:32:33;;;;;;;1.70;0.65;;;4.80;70.80;;;;;;5013502;28;20238;-66
2022/02/21 08:35:00;;;;;;;3.17;1.15;;;4.80;70.40;;;;;;5013637;28;20227;-66
2022/02/21 08:37:27;;;;;;;1.95;0.70;;;4.90;69.80;;;;;;5013316;28;20199;-66
2022/02/21 08:39:55;;;;;;;2.08;0.73;;;4.90;69.20;;;;;;5013451;28;20643;-66
2022/02/21 08:42:22;;;;;;;2.15;0.80;;;5.00;68.20;;;;;;5013156;28;20273;-66
2022/02/21 08:44:49;;;;;;;2.42;1.17;;;5.00;68.80;;;;;;5013455;28;20234;-66
2022/02/21 08:47:16;;;;;;;2.15;0.70;;;5.10;67.70;;;;;;5013399;28;20196;-66
2022/02/21 08:49:43;;;;;;;2.05;0.73;;;5.20;66.70;;;;;;5013397;28;20603;-66
2022/02/21 08:52:10;;;;;;;2.08;0.60;;;5.10;65.60;;;;;;5013257;28;20191;-66
2022/02/21 08:54:38;;;;;;;2.83;0.77;;;5.20;65.90;;;;;;5012938;28;20625;-66
2022/02/21 08:57:06;;;;;;;2.78;0.90;;;5.30;65.10;;;;;;5013068;28;20192;-66
2022/02/21 08:59:33;;;;;;;2.05;0.80;;;5.30;65.10;;;;;;5012862;28;20230;-66
2022/02/21 09:02:00;;;;;;;1.83;0.80;;;5.40;64.60;;;;;;5013167;28;20195;-66
2022/02/21 09:04:27;;;;;;;1.85;0.70;;;5.50;64.10;;;;;;5013034;28;20281;-67
2022/02/21 09:06:54;;;;;;;2.58;1.02;;;5.60;63.00;;;;;;5013150;28;20303;-66
2022/02/21 09:09:22;;;;;;;1.65;0.68;;;5.80;62.70;;;;;;5013238;28;20231;-66
2022/02/21 09:11:50;;;;;;;2.55;1.15;;;6.00;62.50;;;;;;5013191;28;20200;-67
2022/02/21 09:14:18;;;;;;;2.42;0.88;;;6.20;63.30;;;;;;5013188;28;20355;-66
2022/02/21 09:16:45;;;;;;;2.08;1.00;;;6.50;60.00;;;;;;5017064;28;20196;-67
2022/02/21 09:19:12;;;;;;;2.95;1.17;;;7.00;60.20;;;;;;5016511;28;20673;-66
2022/02/21 09:21:40;;;;;;;5.07;1.52;;;8.40;57.40;;;;;;5017064;28;20252;-66
2022/02/21 09:24:07;;;;;;;4.00;1.25;;;10.10;53.60;;;;;;5016900;28;20547;-66
2022/02/21 09:26:34;;;;;;;2.90;1.85;;;12.20;49.90;;;;;;5016842;28;20207;-66
2022/02/21 09:29:01;;;;;;;4.40;1.80;;;14.50;43.60;;;;;;5016445;28;20192;-67
2022/02/21 09:31:29;;;;;;;2.10;0.90;;;16.70;41.70;;;;;;5016714;28;20297;-67
2022/02/21 09:33:56;;;;;;;2.85;1.08;;;17.40;34.60;;;;;;5016340;28;20646;-67
2022/02/21 09:36:23;;;;;;;2.10;1.20;;;17.10;32.60;;;;;;5016940;28;20253;-68
2022/02/21 09:38:50;;;;;;;3.50;1.15;;;16.60;33.80;;;;;;5016922;28;20474;-68
2022/02/21 09:41:16;;;;;;;2.23;1.23;;;16.10;33.70;;;;;;5016774;28;20683;-67
2022/02/21 09:43:43;;;;;;;3.40;1.40;;;16.40;37.80;;;;;;5016690;28;20438;-68
2022/02/21 09:46:11;;;;;;;3.97;1.10;;;19.70;36.60;;;;;;5016695;28;20478;-67
2022/02/21 09:48:41;;;;;;;3.57;2.07;;;23.20;30.50;;;;;;5016435;28;20457;-67
2022/02/21 09:51:08;;;;;;;2.03;1.20;;;26.00;25.70;;;;;;5016664;28;20435;-67
2022/02/21 09:53:37;;;;;;;2.30;0.80;;;26.50;22.50;;;;;;5016589;28;20987;-67
2022/02/21 09:56:05;;;;;;;2.60;1.03;;;25.70;20.90;;;;;;5016556;28;20865;-68
2022/02/21 09:58:33;;;;;;;3.40;0.87;;;23.80;21.50;;;;;;5015846;28;20769;-67
2022/02/21 10:01:00;;;;;;;2.73;0.80;;;22.50;22.80;;;;;;5016490;28;20846;-67
2022/02/21 10:03:42;;;;;;;2.73;1.13;;;21.30;23.20;;;;;;5016165;28;20489;-67
2022/02/21 10:06:17;;;;;;;2.57;1.00;;;19.90;24.20;;;;;;5016130;28;20496;-66
2022/02/21 10:08:56;;;;;;;1.80;0.80;;;18.60;24.40;;;;;;5016429;28;20454;-67
2022/02/21 10:11:25;;;;;;;4.70;0.97;;;17.30;26.30;;;;;;5016235;28;20493;-69
2022/02/21 10:13:56;;;;;;;3.53;1.63;;;17.70;30.80;;;;;;5015634;28;20492;-68
2022/02/21 10:16:23;;;;;;;4.47;1.67;;;21.40;30.60;;;;;;5015810;28;20479;-68
2022/02/21 10:19:07;;;;;;;2.87;1.63;;;25.40;26.80;;;;;;5015562;28;20489;-68
2022/02/21 10:21:59;;;;;;;2.83;0.80;;;28.90;23.40;;;;;;5016104;28;20477;-68
2022/02/21 10:24:28;;;;;;;2.03;0.60;;;32.10;19.30;;;;;;5015909;28;20500;-70
2022/02/21 10:26:57;;;;;;;2.40;1.07;;;34.00;15.80;;;;;;5014660;28;20442;-68
2022/02/21 10:29:24;;;;;;;2.80;1.17;;;35.30;14.80;;;;;;5015136;28;20518;-68
2022/02/21 10:31:51;;;;;;;2.13;0.80;;;36.10;13.50;;;;;;5015433;28;20531;-68
2022/02/21 10:34:19;;;;;;;3.67;1.47;;;36.70;12.80;;;;;;5015470;28;20521;-69
2022/02/21 10:36:47;;;;;;;3.23;0.90;;;36.70;11.70;;;;;;5015203;28;20833;-68
2022/02/21 10:39:17;;;;;;;2.70;0.90;;;34.70;11.30;;;;;;5015419;28;20499;-68
2022/02/21 10:41:49;;;;;;;2.80;1.00;;;31.90;11.70;;;;;;5015365;28;20826;-68
2022/02/21 10:44:21;;;;;;;4.50;0.80;;;29.10;13.40;;;;;;5015527;28;20446;-68
2022/02/21 10:47:02;;;;;;;2.70;1.20;;;26.40;14.80;;;;;;5015379;28;20447;-68
2022/02/21 10:49:32;;;;;;;2.77;0.80;;;24.60;16.10;;;;;;5015338;28;20888;-68
2022/02/21 10:52:00;;;;;;;3.50;1.10;;;22.90;17.10;;;;;;5015035;28;20701;-67
2022/02/21 10:54:31;;;;;;;2.00;1.07;;;21.30;18.50;;;;;;5014927;28;20518;-68
2022/02/21 10:56:58;;;;;;;3.60;1.30;;;19.80;19.60;;;;;;5014467;28;20994;-68
2022/02/21 10:59:29;;;;;;;2.90;0.97;;;18.50;20.90;;;;;;5014591;28;20474;-67
2022/02/21 11:01:56;;;;;;;3.10;1.40;;;17.40;21.30;;;;;;5015309;28;20438;-67
2022/02/21 11:04:25;;;;;;;2.60;1.63;;;16.60;23.60;;;;;;5014980;28;20474;-67
2022/02/21 11:06:54;;;;;;;4.70;1.90;;;16.20;23.50;;;;;;5015130;28;20445;-67
2022/02/21 11:09:23;;;;;;;2.67;1.20;;;15.40;23.80;;;;;;5015096;28;20475;-67
2022/02/21 11:11:52;;;;;;;3.33;0.90;;;14.60;24.60;;;;;;5015106;28;20505;-67
2022/02/21 11:14:22;;;;;;;2.57;0.93;;;13.80;25.70;;;;;;5014655;28;20537;-68
2022/02/21 11:16:51;;;;;;;4.15;1.10;;;13.20;26.30;;;;;;5014564;28;20489;-67
2022/02/21 11:19:18;;;;;;;3.33;1.20;;;12.60;27.30;;;;;;5014876;28;20245;-67
2022/02/21 11:21:47;;;;;;;2.42;1.00;;;12.00;27.70;;;;;;5014763;28;20200;-67
2022/02/21 11:24:18;;;;;;;2.30;0.82;;;11.70;29.50;;;;;;5014502;28;20196;-67
2022/02/21 11:26:55;;;;;;;3.75;1.27;;;12.00;30.40;;;;;;5014761;28;20231;-70
2022/02/21 11:29:35;;;;;;;3.20;1.10;;;12.50;29.90;;;;;;5014695;28;20246;-67
2022/02/21 11:32:02;;;;;;;3.17;1.30;;;12.80;29.70;;;;;;5014776;28;20223;-67
2022/02/21 11:34:29;;;;;;;3.83;1.10;;;13.60;30.60;;;;;;5014463;28;20265;-67
2022/02/21 11:36:59;;;;;;;3.70;1.20;;;14.80;29.40;;;;;;5014220;28;20226;-67
2022/02/21 11:39:31;;;;;;;4.67;1.20;;;16.20;28.70;;;;;;5013208;28;20274;-68
2022/02/21 11:42:07;;;;;;;10.40;1.60;;;16.60;26.10;;;;;;5013579;28;20435;-67
2022/02/21 11:44:48;;;;;;;3.10;1.17;;;16.80;27.20;;;;;;5013508;28;20430;-68
2022/02/21 11:47:35;;;;;;;9.20;2.10;;;19.50;26.70;;;;;;5013663;28;20447;-68
2022/02/21 11:50:04;;;;;;;3.80;1.90;;;19.70;22.10;;;;;;5013976;28;20493;-68
2022/02/21 11:52:35;;;;;;;5.80;1.47;;;19.70;22.80;;;;;;5013977;28;20493;-68
2022/02/21 11:55:24;;;;;;;3.80;1.13;;;19.40;22.80;;;;;;5013434;28;20489;-67
2022/02/21 11:57:51;;;;;;;3.70;1.60;;;18.80;22.70;;;;;;5013689;28;20438;-68
2022/02/21 12:00:37;;;;;;;3.67;1.13;;;18.00;23.00;;;;;;5013745;28;20523;-68
2022/02/21 12:03:14;;;;;;;5.00;1.20;;;17.50;23.70;;;;;;5013606;28;20445;-67
2022/02/21 12:05:41;;;;;;;2.67;1.27;;;17.70;23.60;;;;;;5013473;28;20447;-67
2022/02/21 12:08:22;;;;;;;3.00;1.53;;;17.10;22.80;;;;;;5013502;28;20450;-67
2022/02/21 12:11:21;;;;;;;7.03;1.00;;;16.20;23.90;;;;;;5013686;28;20494;-68
2022/02/21 12:14:17;;;;;;;4.90;1.80;;;15.80;24.50;;;;;;5001334;28;20496;-67
2022/02/21 12:17:07;;;;;;;2.13;0.90;;;15.30;25.10;;;;;;5013827;28;20513;-67
2022/02/21 12:19:39;;;;;;;3.10;1.20;;;16.10;25.80;;;;;;5015355;28;20501;-67
2022/02/21 12:22:11;;;;;;;2.97;1.30;;;16.50;26.40;;;;;;5014896;28;20448;-67
2022/02/21 12:25:09;;;;;;;2.20;1.03;;;17.20;26.00;;;;;;5015581;28;20953;-68
2022/02/21 12:27:37;;;;;;;3.77;1.27;;;19.50;25.80;;;;;;5012677;28;20474;-67
2022/02/21 12:30:05;;;;;;;3.47;1.27;;;19.70;22.00;;;;;;5026493;28;20469;-67
2022/02/21 12:32:33;;;;;;;4.03;1.37;;;19.80;23.10;;;;;;5014206;28;20554;-67
2022/02/21 12:35:00;;;;;;;2.50;1.13;;;19.40;21.50;;;;;;5027529;28;20490;-67
2022/02/21 12:37:35;;;;;;;3.20;1.23;;;19.10;24.00;;;;;;5012534;28;20485;-67
2022/02/21 12:40:05;;;;;;;3.70;1.40;;;20.90;22.80;;;;;;5021606;28;20538;-68
2022/02/21 12:42:32;;;;;;;4.60;1.20;;;20.90;21.10;;;;;;5020369;28;20435;-68
2022/02/21 12:45:00;;;;;;;3.40;1.10;;;20.10;21.00;;;;;;5021737;28;20701;-67
2022/02/21 12:47:28;;;;;;;4.20;1.33;;;19.30;21.50;;;;;;5023250;28;20503;-67
2022/02/21 12:49:55;;;;;;;2.77;1.00;;;18.60;22.80;;;;;;5017823;28;20468;-67
2022/02/21 12:52:22;;;;;;;3.80;1.33;;;20.00;25.20;;;;;;5020262;28;20801;-68
2022/02/21 12:54:54;;;;;;;3.03;1.47;;;23.20;23.90;;;;;;5021908;28;20529;-68
2022/02/21 12:57:22;;;;;;;3.93;1.00;;;26.10;21.30;;;;;;5023312;28;20438;-68
2022/02/21 12:59:50;;;;;;;4.67;1.10;;;27.70;18.80;;;;;;5018968;28;20867;-68